createdAt,value
2018-12-09T00:01:03.317Z,67.43
2018-12-09T00:03:33.304Z,67.34
2018-12-09T00:06:02.493Z,66.13
2018-12-09T00:08:32.038Z,67.08
2018-12-09T00:11:01.585Z,66.73
2018-12-09T00:13:30.680Z,66.19
2018-12-09T00:16:00.007Z,66.31
2018-12-09T00:18:30.058Z,65.43
2018-12-09T00:20:59.522Z,65.77
2018-12-09T00:23:28.832Z,65.05
2018-12-09T00:25:57.941Z,64.14
2018-12-09T00:28:27.732Z,64.04
2018-12-09T00:30:57.150Z,63.55
2018-12-09T00:33:26.658Z,64.19
2018-12-09T00:35:55.769Z,64.52
2018-12-09T00:38:26.177Z,64.36
2018-12-09T00:40:55.590Z,64.74
2018-12-09T00:43:24.714Z,63.85
2018-12-09T00:45:54.120Z,64.52
2018-12-09T00:48:23.260Z,64.28
2018-12-09T00:50:53.020Z,64.36
2018-12-09T00:53:22.410Z,64.02
2018-12-09T00:55:51.862Z,64.29
2018-12-09T00:58:21.070Z,63.69
2018-12-09T01:00:50.356Z,64.27
2018-12-09T01:03:19.458Z,63.08
2018-12-09T01:05:48.598Z,63.05
2018-12-09T01:08:17.926Z,63.06
2018-12-09T01:10:47.448Z,63.14
2018-12-09T01:13:16.850Z,63.18
2018-12-09T01:15:46.110Z,63.01
2018-12-09T01:18:15.701Z,63.01
2018-12-09T01:20:44.921Z,63.04
2018-12-09T01:23:14.057Z,62.36
2018-12-09T01:25:43.255Z,62.46
2018-12-09T01:28:12.483Z,61.98
2018-12-09T01:30:41.681Z,62.93
2018-12-09T01:33:11.357Z,62.54
2018-12-09T01:35:40.999Z,62.66
2018-12-09T01:38:10.310Z,62.38
2018-12-09T01:40:45.090Z,65.48
2018-12-09T01:43:14.406Z,66.92
2018-12-09T01:45:43.693Z,67.39
2018-12-09T01:48:12.814Z,71.32
2018-12-09T01:50:42.124Z,66.18
2018-12-09T01:53:23.281Z,65.04
2018-12-09T01:55:52.488Z,65.68
2018-12-09T01:58:21.965Z,67.39
2018-12-09T02:00:51.286Z,72.05
2018-12-09T02:03:20.592Z,69.71
2018-12-09T02:05:50.070Z,70.00
2018-12-09T02:08:19.216Z,69.23
2018-12-09T02:10:48.393Z,69.29
2018-12-09T02:13:17.560Z,67.77
2018-12-09T02:15:46.758Z,70.44
2018-12-09T02:18:16.086Z,72.35
2018-12-09T02:20:45.357Z,69.35
2018-12-09T02:23:14.946Z,70.94
2018-12-09T02:25:44.229Z,70.89
2018-12-09T02:28:13.445Z,70.59
2018-12-09T02:30:42.689Z,70.50
2018-12-09T02:33:12.061Z,71.17
2018-12-09T02:35:46.486Z,71.43
2018-12-09T02:38:15.592Z,70.00
2018-12-09T02:40:44.687Z,71.18
2018-12-09T02:43:14.302Z,70.79
2018-12-09T02:45:43.396Z,70.05
2018-12-09T02:48:12.490Z,69.58
2018-12-09T02:50:41.710Z,68.02
2018-12-09T02:53:10.968Z,68.58
2018-12-09T02:55:40.389Z,66.92
2018-12-09T02:58:09.582Z,68.00
2018-12-09T03:00:38.867Z,66.78
2018-12-09T03:03:08.138Z,67.37
2018-12-09T03:05:37.406Z,65.98
2018-12-09T03:08:06.564Z,67.24
2018-12-09T03:10:35.763Z,68.59
2018-12-09T03:13:05.224Z,69.70
2018-12-09T03:15:34.846Z,70.87
2018-12-09T03:18:04.015Z,72.57
2018-12-09T03:20:33.198Z,73.80
2018-12-09T03:23:02.375Z,75.27
2018-12-09T03:25:31.587Z,75.28
2018-12-09T03:28:00.864Z,77.04
2018-12-09T03:30:29.978Z,76.39
2018-12-09T03:32:59.270Z,75.78
2018-12-09T03:35:28.607Z,77.30
2018-12-09T03:37:57.837Z,77.56
2018-12-09T03:42:55.059Z,77.52
2018-12-09T03:45:24.143Z,77.71
2018-12-09T03:47:53.658Z,76.47
2018-12-09T03:50:22.926Z,75.69
2018-12-09T03:52:52.210Z,75.31
2018-12-09T03:55:21.542Z,75.09
2018-12-09T03:57:50.707Z,74.33
2018-12-09T04:00:19.819Z,73.49
2018-12-09T04:02:49.283Z,72.11
2018-12-09T04:05:18.422Z,72.62
2018-12-09T04:07:47.612Z,71.57
2018-12-09T04:10:16.801Z,70.57
2018-12-09T04:12:46.008Z,69.99
2018-12-09T04:15:15.229Z,69.29
2018-12-09T04:17:44.530Z,68.90
2018-12-09T04:20:13.894Z,67.68
2018-12-09T04:22:43.082Z,66.62
2018-12-09T04:25:12.295Z,66.78
2018-12-09T04:27:41.390Z,67.47
2018-12-09T04:30:10.623Z,67.37
2018-12-09T04:32:40.207Z,67.08
2018-12-09T04:35:09.386Z,66.86
2018-12-09T04:37:38.894Z,69.18
2018-12-09T04:40:08.794Z,68.05
2018-12-09T04:42:38.114Z,68.63
2018-12-09T04:45:07.402Z,69.71
2018-12-09T04:47:36.538Z,69.63
2018-12-09T04:50:06.983Z,71.41
2018-12-09T04:52:36.204Z,72.07
2018-12-09T04:55:05.768Z,72.09
2018-12-09T04:57:34.878Z,71.98
2018-12-09T05:00:15.198Z,71.99
2018-12-09T05:02:44.404Z,71.84
2018-12-09T05:05:13.774Z,71.32
2018-12-09T05:07:42.849Z,71.93
2018-12-09T05:10:11.976Z,72.42
2018-12-09T05:12:41.077Z,72.51
2018-12-09T05:15:10.583Z,73.31
2018-12-09T05:17:39.721Z,73.88
2018-12-09T05:20:08.896Z,75.51
2018-12-09T05:22:37.999Z,74.52
2018-12-09T05:25:07.374Z,74.71
2018-12-09T05:27:36.768Z,75.50
2018-12-09T05:30:06.505Z,75.61
2018-12-09T05:32:35.611Z,76.65
2018-12-09T05:35:04.990Z,76.05
2018-12-09T05:37:34.374Z,76.43
2018-12-09T05:40:03.520Z,76.84
2018-12-09T05:42:32.683Z,77.67
2018-12-09T05:45:01.885Z,84.04
2018-12-09T05:47:31.076Z,85.51
2018-12-09T05:50:00.507Z,87.47
2018-12-09T05:52:29.577Z,88.59
2018-12-09T05:54:58.678Z,88.63
2018-12-09T05:57:27.862Z,89.30
2018-12-09T05:59:56.934Z,89.44
2018-12-09T06:02:37.438Z,89.05
2018-12-09T06:05:06.708Z,89.26
2018-12-09T06:07:36.371Z,89.56
2018-12-09T06:10:06.246Z,88.92
2018-12-09T06:12:35.403Z,86.49
2018-12-09T06:15:05.165Z,84.32
2018-12-09T06:17:34.263Z,84.11
2018-12-09T06:20:03.546Z,83.64
2018-12-09T06:22:32.847Z,83.58
2018-12-09T06:25:01.956Z,83.02
2018-12-09T06:27:31.082Z,83.16
2018-12-09T06:30:00.280Z,82.56
2018-12-09T06:32:30.146Z,82.81
2018-12-09T06:34:59.346Z,85.42
2018-12-09T06:37:28.526Z,88.26
2018-12-09T06:39:57.615Z,86.29
2018-12-09T06:42:26.996Z,87.68
2018-12-09T06:44:56.139Z,88.95
2018-12-09T06:47:25.241Z,87.76
2018-12-09T06:49:54.331Z,84.49
2018-12-09T06:52:23.511Z,84.18
2018-12-09T06:54:52.610Z,83.99
2018-12-09T06:57:21.860Z,83.40
2018-12-09T06:59:51.014Z,83.14
2018-12-09T07:02:20.226Z,82.96
2018-12-09T07:04:49.368Z,83.73
2018-12-09T07:07:18.450Z,83.14
2018-12-09T07:09:47.639Z,82.88
2018-12-09T07:12:16.820Z,82.68
2018-12-09T07:14:45.900Z,82.04
2018-12-09T07:17:15.086Z,82.51
2018-12-09T07:19:44.703Z,81.93
2018-12-09T07:22:13.913Z,81.65
2018-12-09T07:24:43.002Z,81.36
2018-12-09T07:27:12.186Z,81.57
2018-12-09T07:29:41.902Z,80.23
2018-12-09T07:32:11.007Z,81.06
2018-12-09T07:34:40.386Z,80.33
2018-12-09T07:37:09.563Z,80.21
2018-12-09T07:39:38.670Z,78.78
2018-12-09T07:42:07.949Z,77.83
2018-12-09T07:44:37.063Z,76.72
2018-12-09T07:47:06.257Z,76.57
2018-12-09T07:49:35.433Z,77.16
2018-12-09T07:52:04.667Z,75.80
2018-12-09T07:54:33.793Z,76.00
2018-12-09T07:57:03.439Z,75.22
2018-12-09T07:59:32.593Z,76.17
2018-12-09T08:02:01.781Z,74.87
2018-12-09T08:04:30.994Z,75.92
2018-12-09T08:07:00.305Z,76.20
2018-12-09T08:09:29.485Z,75.03
2018-12-09T08:11:59.033Z,75.01
2018-12-09T08:14:28.117Z,75.22
2018-12-09T08:16:57.335Z,74.89
2018-12-09T08:19:26.499Z,74.91
2018-12-09T08:21:55.963Z,72.85
2018-12-09T08:24:25.091Z,73.69
2018-12-09T08:26:54.307Z,74.31
2018-12-09T08:29:23.477Z,73.17
2018-12-09T08:31:52.691Z,73.61
2018-12-09T08:34:21.867Z,73.47
2018-12-09T08:36:51.164Z,72.49
2018-12-09T08:39:20.378Z,73.35
2018-12-09T08:41:49.546Z,73.16
2018-12-09T08:44:18.666Z,73.98
2018-12-09T08:46:47.846Z,74.08
2018-12-09T08:49:17.032Z,73.65
2018-12-09T08:51:46.133Z,74.04
2018-12-09T08:54:15.234Z,75.50
2018-12-09T08:56:44.462Z,73.98
2018-12-09T08:59:13.734Z,74.08
2018-12-09T09:01:42.950Z,74.80
2018-12-09T09:04:12.805Z,74.92
2018-12-09T09:06:41.934Z,73.90
2018-12-09T09:09:11.168Z,74.00
2018-12-09T09:11:40.405Z,74.81
2018-12-09T09:14:09.484Z,72.90
2018-12-09T09:16:38.594Z,73.27
2018-12-09T09:19:07.716Z,74.41
2018-12-09T09:21:36.807Z,74.82
2018-12-09T09:24:06.009Z,74.65
2018-12-09T09:26:35.139Z,74.97
2018-12-09T09:29:04.344Z,73.72
2018-12-09T09:31:33.444Z,73.42
2018-12-09T09:34:02.598Z,71.99
2018-12-09T09:36:31.681Z,71.47
2018-12-09T09:39:00.775Z,72.06
2018-12-09T09:41:29.971Z,71.74
2018-12-09T09:43:59.090Z,70.67
2018-12-09T09:46:28.238Z,71.01
2018-12-09T09:48:57.344Z,69.82
2018-12-09T09:51:26.459Z,69.50
2018-12-09T09:53:55.590Z,70.29
2018-12-09T09:56:25.795Z,68.99
2018-12-09T09:58:55.026Z,69.72
2018-12-09T10:01:24.398Z,70.07
2018-12-09T10:03:53.754Z,69.18
2018-12-09T10:06:22.918Z,69.72
2018-12-09T10:08:53.896Z,69.76
2018-12-09T10:11:23.288Z,68.27
2018-12-09T10:13:52.690Z,68.14
2018-12-09T10:16:21.931Z,68.91
2018-12-09T10:18:51.122Z,68.59
2018-12-09T10:21:20.314Z,67.70
2018-12-09T10:23:49.538Z,67.43
2018-12-09T10:26:18.664Z,67.59
2018-12-09T10:28:47.849Z,66.23
2018-12-09T10:31:17.910Z,65.20
2018-12-09T10:33:47.213Z,65.82
2018-12-09T10:36:16.435Z,64.55
2018-12-09T10:38:45.609Z,65.06
2018-12-09T10:41:14.891Z,64.54
2018-12-09T10:43:44.007Z,65.39
2018-12-09T10:46:13.105Z,64.83
2018-12-09T10:48:42.261Z,64.13
2018-12-09T10:51:11.494Z,63.73
2018-12-09T10:53:40.720Z,64.64
2018-12-09T10:56:09.921Z,64.80
2018-12-09T10:58:39.135Z,63.85
2018-12-09T11:01:12.895Z,64.46
2018-12-09T11:03:42.076Z,64.54
2018-12-09T11:06:11.158Z,64.83
2018-12-09T11:08:40.394Z,65.18
2018-12-09T11:11:09.642Z,65.96
2018-12-09T11:13:38.879Z,65.98
2018-12-09T11:16:09.818Z,66.59
2018-12-09T11:18:38.944Z,68.28
2018-12-09T11:21:08.083Z,68.56
2018-12-09T11:23:38.034Z,68.95
2018-12-09T11:26:07.215Z,69.51
2018-12-09T11:28:36.463Z,69.76
2018-12-09T11:31:05.833Z,69.06
2018-12-09T11:33:35.107Z,69.22
2018-12-09T11:36:04.441Z,68.92
2018-12-09T11:38:33.595Z,68.34
2018-12-09T11:41:02.951Z,68.30
2018-12-09T11:43:32.319Z,68.19
2018-12-09T11:46:03.866Z,68.07
2018-12-09T11:48:33.031Z,68.09
2018-12-09T11:51:02.358Z,68.35
2018-12-09T11:53:31.664Z,68.06
2018-12-09T11:56:00.857Z,69.41
2018-12-09T11:58:30.343Z,67.77
2018-12-09T12:00:59.585Z,69.44
2018-12-09T12:03:28.765Z,69.92
2018-12-09T12:05:58.049Z,69.78
2018-12-09T12:08:27.384Z,70.27
2018-12-09T12:10:56.560Z,72.51
2018-12-09T12:13:25.759Z,72.78
2018-12-09T12:15:54.897Z,73.11
2018-12-09T12:18:24.095Z,73.98
2018-12-09T12:20:53.210Z,74.62
2018-12-09T12:23:22.459Z,76.65
2018-12-09T12:25:55.671Z,76.80
2018-12-09T12:28:25.342Z,76.83
2018-12-09T12:30:54.598Z,76.41
2018-12-09T12:33:23.778Z,100.00
2018-12-09T12:35:52.918Z,78.58
2018-12-09T12:38:22.824Z,79.21
2018-12-09T12:40:52.065Z,78.56
2018-12-09T12:43:21.534Z,78.69
2018-12-09T12:45:50.747Z,78.83
2018-12-09T12:48:20.174Z,77.56
2018-12-09T12:50:49.289Z,77.92
2018-12-09T12:53:18.675Z,78.72
2018-12-09T12:55:47.833Z,78.68
2018-12-09T12:58:16.944Z,79.60
2018-12-09T13:00:46.136Z,79.36
2018-12-09T13:03:15.252Z,78.85
2018-12-09T13:05:45.559Z,78.86
2018-12-09T13:08:15.064Z,78.85
2018-12-09T13:10:44.277Z,78.21
2018-12-09T13:13:13.423Z,77.70
2018-12-09T13:15:42.643Z,78.93
2018-12-09T13:18:11.775Z,77.81
2018-12-09T13:20:41.100Z,77.11
2018-12-09T13:23:10.424Z,77.60
2018-12-09T13:25:39.518Z,77.42
2018-12-09T13:28:08.724Z,77.50
2018-12-09T13:30:38.008Z,76.30
2018-12-09T13:33:07.260Z,76.48
2018-12-09T13:35:36.546Z,77.44
2018-12-09T13:38:05.711Z,77.25
2018-12-09T13:40:34.827Z,78.16
2018-12-09T13:43:04.578Z,78.28
2018-12-09T13:45:34.388Z,78.67
2018-12-09T13:48:03.718Z,78.60
2018-12-09T13:50:32.929Z,78.06
2018-12-09T13:53:02.062Z,79.25
2018-12-09T13:55:31.253Z,79.46
2018-12-09T13:58:00.366Z,78.11
2018-12-09T14:00:29.490Z,78.53
2018-12-09T14:02:58.610Z,77.05
2018-12-09T14:05:27.856Z,77.88
2018-12-09T14:07:57.050Z,77.54
2018-12-09T14:10:26.342Z,77.63
2018-12-09T14:12:55.464Z,76.48
2018-12-09T14:15:24.563Z,76.29
2018-12-09T14:17:53.722Z,75.16
2018-12-09T14:20:22.938Z,75.21
2018-12-09T14:22:52.094Z,76.00
2018-12-09T14:25:21.344Z,74.38
2018-12-09T14:27:50.684Z,75.51
2018-12-09T14:30:19.975Z,75.82
2018-12-09T14:32:49.262Z,75.79
2018-12-09T14:35:18.363Z,74.04
2018-12-09T14:37:47.633Z,73.92
2018-12-09T14:40:16.719Z,73.36
2018-12-09T14:42:46.277Z,74.10
2018-12-09T14:45:15.427Z,74.76
2018-12-09T14:47:44.629Z,74.30
2018-12-09T14:50:14.163Z,73.91
2018-12-09T14:52:43.411Z,73.10
2018-12-09T14:55:12.682Z,74.44
2018-12-09T14:57:41.838Z,74.38
2018-12-09T15:00:11.444Z,74.68
2018-12-09T15:02:40.618Z,74.81
2018-12-09T15:05:09.735Z,74.77
2018-12-09T15:07:38.931Z,77.31
2018-12-09T15:10:08.963Z,77.71
2018-12-09T15:12:38.451Z,77.41
2018-12-09T15:15:07.757Z,78.77
2018-12-09T15:17:36.957Z,80.14
2018-12-09T15:20:06.989Z,80.06
2018-12-09T15:22:36.343Z,79.21
2018-12-09T15:25:07.529Z,80.35
2018-12-09T15:27:36.821Z,79.84
2018-12-09T15:30:07.481Z,81.08
2018-12-09T15:32:36.722Z,80.33
2018-12-09T15:35:06.569Z,80.72
2018-12-09T15:37:35.746Z,81.60
2018-12-09T15:40:05.745Z,81.62
2018-12-09T15:42:34.822Z,80.52
2018-12-09T15:45:04.344Z,80.81
2018-12-09T15:47:33.455Z,81.19
2018-12-09T15:50:02.771Z,80.79
2018-12-09T15:52:31.934Z,81.02
2018-12-09T15:55:01.041Z,81.37
2018-12-09T15:57:30.266Z,81.29
2018-12-09T16:00:02.722Z,81.99
2018-12-09T16:02:32.072Z,81.92
2018-12-09T16:05:01.280Z,81.67
2018-12-09T16:07:30.539Z,80.87
2018-12-09T16:09:59.653Z,81.15
2018-12-09T16:12:28.984Z,80.53
2018-12-09T16:14:58.081Z,80.96
2018-12-09T16:17:27.222Z,80.88
2018-12-09T16:19:56.344Z,80.43
2018-12-09T16:22:25.967Z,79.91
2018-12-09T16:24:55.074Z,80.71
2018-12-09T16:27:24.179Z,80.44
2018-12-09T16:29:53.315Z,80.45
2018-12-09T16:32:22.478Z,79.81
2018-12-09T16:34:51.642Z,79.41
2018-12-09T16:37:20.746Z,80.30
2018-12-09T16:39:50.064Z,80.04
2018-12-09T16:42:19.182Z,79.66
2018-12-09T16:44:48.303Z,79.07
2018-12-09T16:47:17.414Z,78.96
2018-12-09T16:49:46.522Z,78.90
2018-12-09T16:52:15.614Z,79.68
2018-12-09T16:54:44.834Z,79.40
2018-12-09T16:57:14.525Z,79.63
2018-12-09T16:59:43.778Z,78.74
2018-12-09T17:02:12.897Z,77.80
2018-12-09T17:04:42.426Z,78.34
2018-12-09T17:07:11.540Z,78.84
2018-12-09T17:09:40.942Z,78.54
2018-12-09T17:12:10.119Z,79.88
2018-12-09T17:14:39.273Z,78.59
2018-12-09T17:17:08.691Z,79.42
2018-12-09T17:19:37.876Z,79.47
2018-12-09T17:22:07.016Z,79.70
2018-12-09T17:24:38.063Z,78.96
2018-12-09T17:27:07.154Z,79.31
2018-12-09T17:29:36.286Z,79.31
2018-12-09T17:32:05.502Z,79.82
2018-12-09T17:34:35.104Z,79.54
2018-12-09T17:37:04.210Z,80.58
2018-12-09T17:39:33.640Z,80.42
2018-12-09T17:42:02.794Z,81.18
2018-12-09T17:44:31.898Z,80.58
2018-12-09T17:47:01.226Z,80.49
2018-12-09T17:49:30.329Z,81.95
2018-12-09T17:51:59.437Z,82.13
2018-12-09T17:54:28.708Z,81.67
2018-12-09T17:56:57.818Z,81.51
2018-12-09T17:59:26.905Z,81.81
2018-12-09T18:01:56.046Z,82.35
2018-12-09T18:04:25.255Z,81.91
2018-12-09T18:06:54.561Z,82.05
2018-12-09T18:09:23.679Z,81.85
2018-12-09T18:11:52.814Z,81.96
2018-12-09T18:14:21.911Z,81.44
2018-12-09T18:16:51.361Z,80.80
2018-12-09T18:19:20.526Z,81.04
2018-12-09T18:21:49.840Z,81.40
2018-12-09T18:24:18.964Z,81.54
2018-12-09T18:26:48.213Z,81.52
2018-12-09T18:29:17.541Z,81.75
2018-12-09T18:31:46.712Z,81.37
2018-12-09T18:34:16.124Z,81.74
2018-12-09T18:36:45.663Z,81.39
2018-12-09T18:39:16.507Z,81.81
2018-12-09T18:41:45.618Z,81.99
2018-12-09T18:44:14.909Z,82.09
2018-12-09T18:46:44.611Z,82.15
2018-12-09T18:49:14.117Z,81.41
2018-12-09T18:51:43.397Z,81.69
2018-12-09T18:54:12.487Z,81.74
2018-12-09T18:56:41.580Z,81.49
2018-12-09T18:59:10.867Z,81.51
2018-12-09T19:01:40.056Z,80.89
2018-12-09T19:04:09.531Z,82.00
2018-12-09T19:06:38.738Z,81.87
2018-12-09T19:09:08.223Z,81.55
2018-12-09T19:11:37.519Z,81.76
2018-12-09T19:14:06.757Z,81.89
2018-12-09T19:16:35.863Z,82.19
2018-12-09T19:19:05.076Z,81.15
2018-12-09T19:21:34.163Z,81.00
2018-12-09T19:24:03.492Z,82.23
2018-12-09T19:26:32.613Z,81.64
2018-12-09T19:29:01.708Z,81.41
2018-12-09T19:31:30.868Z,81.67
2018-12-09T19:34:00.392Z,82.33
2018-12-09T19:36:29.507Z,82.11
2018-12-09T19:38:58.895Z,82.68
2018-12-09T19:41:28.007Z,82.44
2018-12-09T19:43:57.231Z,82.69
2018-12-09T19:46:26.343Z,83.42
2018-12-09T19:48:55.754Z,83.38
2018-12-09T19:51:24.887Z,82.98
2018-12-09T19:53:54.097Z,82.92
2018-12-09T19:56:23.397Z,81.63
2018-12-09T19:58:52.520Z,81.78
2018-12-09T20:01:21.654Z,81.94
2018-12-09T20:03:50.862Z,82.97
2018-12-09T20:06:19.988Z,83.17
2018-12-09T20:08:49.194Z,83.30
2018-12-09T20:11:18.320Z,82.87
2018-12-09T20:13:47.835Z,82.67
2018-12-09T20:16:17.362Z,82.54
2018-12-09T20:18:46.671Z,83.25
2018-12-09T20:21:16.004Z,82.64
2018-12-09T20:23:45.519Z,82.71
2018-12-09T20:26:14.619Z,82.46
2018-12-09T20:28:43.938Z,82.90
2018-12-09T20:31:13.132Z,82.10
2018-12-09T20:33:42.246Z,82.04
2018-12-09T20:36:11.368Z,82.36
2018-12-09T20:38:40.508Z,82.11
2018-12-09T20:41:09.627Z,82.25
2018-12-09T20:43:38.767Z,81.98
2018-12-09T20:46:07.947Z,82.03
2018-12-09T20:48:37.153Z,81.53
2018-12-09T20:51:06.253Z,80.82
2018-12-09T20:53:35.341Z,81.10
2018-12-09T20:56:04.477Z,81.04
2018-12-09T20:58:33.874Z,81.98
2018-12-09T21:01:02.980Z,81.59
2018-12-09T21:03:32.091Z,82.52
2018-12-09T21:06:01.297Z,81.98
2018-12-09T21:08:30.854Z,81.65
2018-12-09T21:10:59.948Z,82.12
2018-12-09T21:13:29.048Z,82.61
2018-12-09T21:15:58.187Z,82.07
2018-12-09T21:18:27.286Z,82.31
2018-12-09T21:20:56.690Z,82.08
2018-12-09T21:23:25.810Z,82.85
2018-12-09T21:25:55.011Z,82.25
2018-12-09T21:28:24.626Z,81.68
2018-12-09T21:30:53.827Z,81.56
2018-12-09T21:33:22.942Z,82.21
2018-12-09T21:35:52.978Z,81.57
2018-12-09T21:38:22.075Z,80.29
2018-12-09T21:40:51.182Z,79.59
2018-12-09T21:43:20.268Z,79.47
2018-12-09T21:45:49.446Z,79.89
2018-12-09T21:48:18.760Z,79.68
2018-12-09T21:50:47.838Z,79.19
2018-12-09T21:53:17.954Z,80.33
2018-12-09T21:55:47.193Z,78.55
2018-12-09T21:58:16.330Z,78.48
2018-12-09T22:00:49.842Z,77.57
2018-12-09T22:03:19.367Z,78.19
2018-12-09T22:05:48.571Z,78.33
2018-12-09T22:08:17.671Z,77.98
2018-12-09T22:10:46.771Z,78.45
2018-12-09T22:13:15.970Z,78.91
2018-12-09T22:15:45.090Z,78.50
2018-12-09T22:18:14.236Z,79.79
2018-12-09T22:20:43.419Z,79.21
2018-12-09T22:23:12.510Z,78.41
2018-12-09T22:25:41.882Z,78.93
2018-12-09T22:28:11.002Z,78.92
2018-12-09T22:30:40.172Z,79.29
2018-12-09T22:33:09.338Z,80.10
2018-12-09T22:35:38.652Z,79.84
2018-12-09T22:38:07.761Z,79.70
2018-12-09T22:40:36.904Z,79.71
2018-12-09T22:43:05.983Z,80.23
2018-12-09T22:45:35.197Z,80.23
2018-12-09T22:48:04.711Z,81.61
2018-12-09T22:50:33.799Z,82.15
2018-12-09T22:53:02.906Z,81.95
2018-12-09T22:55:32.084Z,82.35
2018-12-09T22:58:01.387Z,82.85
2018-12-09T23:00:30.574Z,82.22
2018-12-09T23:03:02.822Z,83.28
2018-12-09T23:05:32.272Z,83.36
2018-12-09T23:08:01.471Z,83.83
2018-12-09T23:10:30.674Z,84.01
2018-12-09T23:12:59.784Z,84.63
2018-12-09T23:15:28.884Z,83.25
2018-12-09T23:17:58.061Z,83.22
2018-12-09T23:20:27.246Z,83.70
2018-12-09T23:22:56.330Z,83.89
2018-12-09T23:25:25.442Z,83.88
2018-12-09T23:27:54.558Z,83.48
2018-12-09T23:30:23.652Z,84.08
2018-12-09T23:32:52.829Z,83.64
2018-12-09T23:35:21.961Z,84.05
2018-12-09T23:37:51.287Z,84.08
2018-12-09T23:40:20.522Z,84.49
2018-12-09T23:42:49.751Z,84.27
2018-12-09T23:45:19.213Z,84.37
2018-12-09T23:47:48.298Z,85.17
2018-12-09T23:50:17.408Z,83.96
2018-12-09T23:52:46.491Z,84.25
2018-12-09T23:55:15.700Z,83.93
2018-12-09T23:57:44.919Z,83.14
